createdAt,value
2019-05-05T00:02:17.242Z,4.63
2019-05-05T00:04:54.365Z,4.67
2019-05-05T00:07:26.754Z,4.80
2019-05-05T00:09:58.708Z,5.00
2019-05-05T00:12:31.130Z,4.70
2019-05-05T00:15:05.197Z,4.80
2019-05-05T00:17:36.303Z,5.30
2019-05-05T00:20:08.581Z,4.77
2019-05-05T00:22:39.279Z,4.17
2019-05-05T00:25:10.064Z,5.03
2019-05-05T00:27:40.768Z,5.23
2019-05-05T00:30:14.371Z,4.83
2019-05-05T00:32:45.192Z,5.70
2019-05-05T00:35:15.926Z,5.40
2019-05-05T00:37:46.790Z,5.37
2019-05-05T00:40:17.556Z,6.00
2019-05-05T00:42:50.850Z,4.77
2019-05-05T00:45:21.471Z,5.90
2019-05-05T00:47:54.529Z,6.23
2019-05-05T00:50:25.387Z,5.50
2019-05-05T00:52:56.064Z,6.33
2019-05-05T00:55:26.997Z,5.80
2019-05-05T00:57:57.563Z,6.87
2019-05-05T01:00:30.049Z,6.37
2019-05-05T01:03:00.838Z,6.47
2019-05-05T01:05:34.395Z,6.50
2019-05-05T01:08:06.984Z,5.97
2019-05-05T01:10:37.753Z,5.70
2019-05-05T01:13:08.575Z,5.43
2019-05-05T01:15:39.550Z,5.93
2019-05-05T01:18:10.250Z,5.40
2019-05-05T01:20:40.834Z,6.93
2019-05-05T01:23:14.887Z,6.00
2019-05-05T01:25:48.652Z,7.27
2019-05-05T01:28:17.912Z,5.70
2019-05-05T01:30:50.609Z,6.20
2019-05-05T01:33:39.046Z,6.47
2019-05-05T01:36:09.753Z,6.43
2019-05-05T01:38:44.526Z,6.73
2019-05-05T01:41:31.376Z,6.03
2019-05-05T01:44:02.098Z,7.10
2019-05-05T01:46:32.820Z,6.60
2019-05-05T01:49:05.394Z,6.60
2019-05-05T01:51:35.922Z,5.90
2019-05-05T01:54:06.866Z,6.10
2019-05-05T01:56:37.685Z,6.60
2019-05-05T01:59:08.309Z,6.70
2019-05-05T02:01:39.318Z,6.80
2019-05-05T02:04:10.298Z,6.53
2019-05-05T02:06:41.123Z,5.40
2019-05-05T02:09:11.734Z,5.47
2019-05-05T02:11:42.565Z,6.63
2019-05-05T02:14:15.423Z,5.33
2019-05-05T02:16:46.720Z,6.87
2019-05-05T02:19:17.832Z,5.93
2019-05-05T02:21:48.504Z,6.50
2019-05-05T02:24:19.108Z,5.50
2019-05-05T02:26:54.555Z,5.47
2019-05-05T02:29:30.946Z,5.93
2019-05-05T02:32:19.569Z,5.43
2019-05-05T02:34:56.186Z,5.83
2019-05-05T02:37:27.498Z,6.00
2019-05-05T02:40:03.291Z,5.43
2019-05-05T02:42:35.424Z,5.80
2019-05-05T02:45:07.665Z,6.70
2019-05-05T02:47:47.350Z,6.17
2019-05-05T02:50:18.775Z,6.20
2019-05-05T02:52:50.495Z,5.90
2019-05-05T02:55:23.548Z,6.23
2019-05-05T02:57:56.411Z,6.07
2019-05-05T03:00:29.521Z,6.07
2019-05-05T03:03:01.902Z,6.03
2019-05-05T03:05:34.103Z,6.13
2019-05-05T03:08:04.957Z,6.00
2019-05-05T03:10:36.156Z,6.17
2019-05-05T03:13:07.257Z,6.27
2019-05-05T03:15:55.001Z,5.87
2019-05-05T03:18:25.718Z,5.47
2019-05-05T03:21:04.536Z,5.23
2019-05-05T03:23:29.369Z,5.80
2019-05-05T03:26:00.124Z,4.70
2019-05-05T03:28:34.428Z,5.80
2019-05-05T03:31:05.311Z,4.73
2019-05-05T03:33:36.570Z,4.70
2019-05-05T03:36:08.067Z,5.00
2019-05-05T03:38:38.843Z,4.23
2019-05-05T03:41:13.595Z,3.83
2019-05-05T03:44:04.697Z,4.40
2019-05-05T03:46:36.764Z,4.50
2019-05-05T03:49:07.568Z,4.80
2019-05-05T03:51:38.844Z,3.90
2019-05-05T03:54:09.971Z,4.87
2019-05-05T03:56:41.160Z,3.47
2019-05-05T03:59:14.161Z,3.33
2019-05-05T04:01:46.946Z,3.93
2019-05-05T04:04:28.471Z,3.87
2019-05-05T04:07:00.875Z,3.23
2019-05-05T04:09:31.656Z,3.20
2019-05-05T04:12:04.264Z,3.73
2019-05-05T04:14:34.938Z,3.30
2019-05-05T04:17:24.381Z,3.70
2019-05-05T04:19:56.192Z,2.97
2019-05-05T04:22:26.936Z,3.23
2019-05-05T04:24:57.625Z,3.77
2019-05-05T04:27:28.371Z,3.23
2019-05-05T04:29:59.111Z,3.57
2019-05-05T04:32:29.861Z,3.17
2019-05-05T04:35:00.677Z,3.53
2019-05-05T04:37:31.397Z,2.87
2019-05-05T04:40:04.049Z,2.97
2019-05-05T04:42:34.842Z,2.80
2019-05-05T04:45:08.422Z,3.00
2019-05-05T04:47:55.951Z,3.27
2019-05-05T04:50:45.188Z,2.67
2019-05-05T04:53:19.329Z,2.80
2019-05-05T04:55:51.182Z,3.17
2019-05-05T04:58:24.126Z,2.80
2019-05-05T05:00:54.822Z,3.27
2019-05-05T05:03:34.648Z,2.87
2019-05-05T05:06:14.647Z,3.47
2019-05-05T05:08:46.150Z,3.47
2019-05-05T05:11:17.405Z,2.87
2019-05-05T05:13:48.158Z,3.80
2019-05-05T05:16:18.914Z,3.70
2019-05-05T05:18:49.540Z,4.20
2019-05-05T05:21:20.289Z,3.10
2019-05-05T05:23:50.977Z,3.37
2019-05-05T05:26:24.234Z,2.90
2019-05-05T05:28:54.978Z,3.13
2019-05-05T05:31:25.800Z,3.07
2019-05-05T05:33:56.394Z,3.70
2019-05-05T05:36:27.013Z,3.10
2019-05-05T05:38:59.260Z,3.40
2019-05-05T05:41:48.357Z,3.03
2019-05-05T05:44:29.501Z,3.27
2019-05-05T05:47:03.593Z,3.07
2019-05-05T05:49:35.854Z,2.73
2019-05-05T05:52:16.272Z,2.70
2019-05-05T05:54:38.879Z,2.47
2019-05-05T05:57:09.549Z,2.80
2019-05-05T05:59:40.557Z,2.43
2019-05-05T06:02:15.394Z,3.07
2019-05-05T06:04:44.775Z,2.80
2019-05-05T06:07:15.751Z,2.87
2019-05-05T06:09:46.442Z,3.20
2019-05-05T06:12:17.171Z,2.70
2019-05-05T06:14:47.801Z,2.60
2019-05-05T06:17:18.830Z,2.20
2019-05-05T06:19:49.521Z,2.40
2019-05-05T06:22:28.467Z,2.40
2019-05-05T06:24:54.116Z,2.10
2019-05-05T06:27:25.467Z,2.67
2019-05-05T06:29:56.239Z,2.33
2019-05-05T06:32:27.464Z,2.63
2019-05-05T06:34:58.139Z,2.30
2019-05-05T06:37:29.004Z,2.23
2019-05-05T06:40:01.358Z,2.00
2019-05-05T06:42:36.333Z,2.00
2019-05-05T06:45:09.929Z,2.20
2019-05-05T06:47:42.107Z,2.50
2019-05-05T06:50:14.048Z,2.77
2019-05-05T06:52:47.120Z,1.90
2019-05-05T06:55:17.519Z,1.47
2019-05-05T06:57:48.253Z,1.90
2019-05-05T07:00:19.571Z,2.03
2019-05-05T07:02:51.131Z,1.37
2019-05-05T07:05:23.531Z,1.70
2019-05-05T07:07:54.493Z,1.10
2019-05-05T07:10:26.641Z,1.33
2019-05-05T07:12:57.286Z,1.33
2019-05-05T07:15:28.026Z,1.30
2019-05-05T07:17:58.732Z,1.03
2019-05-05T07:20:30.415Z,1.63
2019-05-05T07:23:03.033Z,1.63
2019-05-05T07:25:41.446Z,1.20
2019-05-05T07:28:06.811Z,1.20
2019-05-05T07:30:37.933Z,1.40
2019-05-05T07:33:08.975Z,1.40
2019-05-05T07:35:54.920Z,1.10
2019-05-05T07:38:14.073Z,1.50
2019-05-05T07:40:46.261Z,1.30
2019-05-05T07:43:17.430Z,1.37
2019-05-05T07:45:48.664Z,1.30
2019-05-05T07:48:19.229Z,1.20
2019-05-05T07:50:59.713Z,1.03
2019-05-05T07:53:24.486Z,1.37
2019-05-05T07:55:55.055Z,1.30
2019-05-05T07:58:25.736Z,1.27
2019-05-05T08:00:57.618Z,0.90
2019-05-05T08:03:30.259Z,1.00
2019-05-05T08:06:01.139Z,1.23
2019-05-05T08:08:33.502Z,1.27
2019-05-05T08:11:05.245Z,1.00
2019-05-05T08:13:35.943Z,1.10
2019-05-05T08:16:25.041Z,0.80
2019-05-05T08:19:06.441Z,1.10
2019-05-05T08:21:37.122Z,1.50
2019-05-05T08:24:09.386Z,1.30
2019-05-05T08:26:44.067Z,1.10
2019-05-05T08:29:31.680Z,0.77
2019-05-05T08:32:09.725Z,1.43
2019-05-05T08:34:53.945Z,1.07
2019-05-05T08:37:14.613Z,1.00
2019-05-05T08:39:45.479Z,0.97
2019-05-05T08:42:16.613Z,1.30
2019-05-05T08:44:47.562Z,0.80
2019-05-05T08:47:18.277Z,0.90
2019-05-05T08:49:49.113Z,1.03
2019-05-05T08:52:19.876Z,1.30
2019-05-05T08:54:53.973Z,1.23
2019-05-05T08:57:24.534Z,1.00
2019-05-05T08:59:55.364Z,0.80
2019-05-05T09:02:26.077Z,1.07
2019-05-05T09:04:57.290Z,1.27
2019-05-05T09:07:28.075Z,1.20
2019-05-05T09:09:58.688Z,1.30
2019-05-05T09:12:29.510Z,1.03
2019-05-05T09:15:00.539Z,1.27
2019-05-05T09:17:33.667Z,1.10
2019-05-05T09:20:05.426Z,1.40
2019-05-05T09:22:36.205Z,1.60
2019-05-05T09:25:17.674Z,1.10
2019-05-05T09:27:59.352Z,1.30
2019-05-05T09:30:40.230Z,1.10
2019-05-05T09:33:11.330Z,1.20
2019-05-05T09:35:43.726Z,1.00
2019-05-05T09:38:14.833Z,1.50
2019-05-05T09:40:46.008Z,1.10
2019-05-05T09:43:17.310Z,1.17
2019-05-05T09:45:49.081Z,1.30
2019-05-05T09:48:20.525Z,1.27
2019-05-05T09:50:51.209Z,0.87
2019-05-05T09:53:23.769Z,1.20
2019-05-05T09:55:55.137Z,1.10
2019-05-05T09:58:25.953Z,1.07
2019-05-05T10:00:57.774Z,1.03
2019-05-05T10:03:29.136Z,1.10
2019-05-05T10:06:00.155Z,0.80
2019-05-05T10:08:30.736Z,1.10
2019-05-05T10:11:01.487Z,0.87
2019-05-05T10:13:33.611Z,0.80
2019-05-05T10:16:05.509Z,1.57
2019-05-05T10:18:36.720Z,1.10
2019-05-05T10:21:07.374Z,1.10
2019-05-05T10:23:39.729Z,0.87
2019-05-05T10:26:14.870Z,1.13
2019-05-05T10:28:45.675Z,0.97
2019-05-05T10:31:16.590Z,0.83
2019-05-05T10:33:48.955Z,0.87
2019-05-05T10:36:19.642Z,0.87
2019-05-05T10:38:55.173Z,1.00
2019-05-05T10:41:26.452Z,0.77
2019-05-05T10:43:57.133Z,0.80
2019-05-05T10:46:28.026Z,0.93
2019-05-05T10:48:59.915Z,0.90
2019-05-05T10:51:30.792Z,0.80
2019-05-05T10:54:04.056Z,0.80
2019-05-05T10:56:35.531Z,0.70
2019-05-05T10:59:06.257Z,0.73
2019-05-05T11:01:37.126Z,0.70
2019-05-05T11:04:08.055Z,0.80
2019-05-05T11:06:40.612Z,0.80
2019-05-05T11:09:13.844Z,0.63
2019-05-05T11:11:44.653Z,0.70
2019-05-05T11:14:15.894Z,0.67
2019-05-05T11:16:46.543Z,0.60
2019-05-05T11:19:17.492Z,0.90
2019-05-05T11:21:48.222Z,0.70
2019-05-05T11:24:18.835Z,0.93
2019-05-05T11:26:49.627Z,0.80
2019-05-05T11:29:21.692Z,0.80
2019-05-05T11:31:55.401Z,0.80
2019-05-05T11:34:27.511Z,1.30
2019-05-05T11:36:59.836Z,0.80
2019-05-05T11:39:31.041Z,1.30
2019-05-05T11:42:04.250Z,1.20
2019-05-05T11:44:35.028Z,1.10
2019-05-05T11:47:06.244Z,0.70
2019-05-05T11:49:37.483Z,0.70
2019-05-05T11:52:08.454Z,0.90
2019-05-05T11:54:39.973Z,0.70
2019-05-05T11:57:10.701Z,0.80
2019-05-05T11:59:41.974Z,0.63
2019-05-05T12:02:14.022Z,1.07
2019-05-05T12:04:45.036Z,1.10
2019-05-05T12:07:16.531Z,1.23
2019-05-05T12:09:48.967Z,0.80
2019-05-05T12:12:19.611Z,0.80
2019-05-05T12:14:53.726Z,0.70
2019-05-05T12:17:36.504Z,0.80
2019-05-05T12:20:10.146Z,0.60
2019-05-05T12:22:41.054Z,0.80
2019-05-05T12:25:29.930Z,0.63
2019-05-05T12:28:04.410Z,0.90
2019-05-05T12:30:35.870Z,0.67
2019-05-05T12:33:07.229Z,0.80
2019-05-05T12:35:37.978Z,0.97
2019-05-05T12:38:08.715Z,0.97
2019-05-05T12:40:39.801Z,0.70
2019-05-05T12:43:14.188Z,0.57
2019-05-05T12:45:48.528Z,0.90
2019-05-05T12:48:34.490Z,0.70
2019-05-05T12:51:05.791Z,0.80
2019-05-05T12:53:38.606Z,0.77
2019-05-05T12:56:11.490Z,0.97
2019-05-05T12:58:44.003Z,0.50
2019-05-05T13:01:36.153Z,0.90
2019-05-05T13:04:07.170Z,0.70
2019-05-05T13:06:38.314Z,1.00
2019-05-05T13:09:09.464Z,0.93
2019-05-05T13:11:40.088Z,0.80
2019-05-05T13:14:11.044Z,1.03
2019-05-05T13:16:52.374Z,0.83
2019-05-05T13:19:31.741Z,0.70
2019-05-05T13:22:13.606Z,0.90
2019-05-05T13:24:48.949Z,1.20
2019-05-05T13:27:39.517Z,1.00
2019-05-05T13:30:18.806Z,1.00
2019-05-05T13:32:49.978Z,1.00
2019-05-05T13:35:23.441Z,1.73
2019-05-05T13:37:54.951Z,1.07
2019-05-05T13:40:26.298Z,1.50
2019-05-05T13:42:57.656Z,1.03
2019-05-05T13:45:50.386Z,0.77
2019-05-05T13:48:22.694Z,0.80
2019-05-05T13:51:00.564Z,1.60
2019-05-05T13:53:34.102Z,1.10
2019-05-05T13:56:11.955Z,1.53
2019-05-05T13:58:40.130Z,1.57
2019-05-05T14:01:14.538Z,1.10
2019-05-05T14:03:45.560Z,1.10
2019-05-05T14:06:17.096Z,1.50
2019-05-05T14:08:48.993Z,0.80
2019-05-05T14:11:22.154Z,0.80
2019-05-05T14:13:54.110Z,0.80
2019-05-05T14:16:25.681Z,0.70
2019-05-05T14:18:56.639Z,0.77
2019-05-05T14:21:27.634Z,1.50
2019-05-05T14:24:09.821Z,0.80
2019-05-05T14:26:41.955Z,0.83
2019-05-05T14:29:15.936Z,0.80
2019-05-05T14:31:52.069Z,0.80
2019-05-05T14:34:25.597Z,0.80
2019-05-05T14:37:01.780Z,0.77
2019-05-05T14:39:34.113Z,0.90
2019-05-05T14:42:06.324Z,0.70
2019-05-05T14:44:37.657Z,1.30
2019-05-05T14:47:09.093Z,0.80
2019-05-05T14:49:41.152Z,0.97
2019-05-05T14:52:13.675Z,0.83
2019-05-05T14:54:45.209Z,1.00
2019-05-05T14:57:17.429Z,1.10
2019-05-05T14:59:48.524Z,1.40
2019-05-05T15:02:19.763Z,1.20
2019-05-05T15:04:53.699Z,1.30
2019-05-05T15:07:44.546Z,2.77
2019-05-05T15:10:34.363Z,1.00
2019-05-05T15:13:08.592Z,1.10
2019-05-05T15:15:39.781Z,1.23
2019-05-05T15:18:14.636Z,1.13
2019-05-05T15:20:46.624Z,1.10
2019-05-05T15:23:18.355Z,1.10
2019-05-05T15:25:49.475Z,1.00
2019-05-05T15:28:20.991Z,1.77
2019-05-05T15:30:54.524Z,1.20
2019-05-05T15:33:26.508Z,1.03
2019-05-05T15:35:57.264Z,1.10
2019-05-05T15:38:28.024Z,1.43
2019-05-05T15:40:58.848Z,1.83
2019-05-05T15:43:30.066Z,1.30
2019-05-05T15:46:04.533Z,0.70
2019-05-05T15:48:35.814Z,1.00
2019-05-05T15:51:07.141Z,2.53
2019-05-05T15:53:37.826Z,1.70
2019-05-05T15:56:10.554Z,1.60
2019-05-05T15:58:43.398Z,1.80
2019-05-05T16:01:14.367Z,1.60
2019-05-05T16:03:45.587Z,1.93
2019-05-05T16:06:16.343Z,1.70
2019-05-05T16:08:47.210Z,0.90
2019-05-05T16:11:18.713Z,0.90
2019-05-05T16:13:51.091Z,0.80
2019-05-05T16:16:29.555Z,0.70
2019-05-05T16:19:08.476Z,0.90
2019-05-05T16:21:40.966Z,0.80
2019-05-05T16:24:14.032Z,0.70
2019-05-05T16:26:44.825Z,1.00
2019-05-05T16:29:15.629Z,1.40
2019-05-05T16:31:49.098Z,1.70
2019-05-05T16:34:20.073Z,1.23
2019-05-05T16:36:56.669Z,1.20
2019-05-05T16:39:26.765Z,2.23
2019-05-05T16:41:57.802Z,4.33
2019-05-05T16:44:28.881Z,2.87
2019-05-05T16:46:59.871Z,0.80
2019-05-05T16:49:30.911Z,1.07
2019-05-05T16:52:04.075Z,1.40
2019-05-05T16:54:37.236Z,1.27
2019-05-05T16:57:08.538Z,1.80
2019-05-05T16:59:39.713Z,1.60
2019-05-05T17:02:10.286Z,1.53
2019-05-05T17:04:43.344Z,1.93
2019-05-05T17:07:14.322Z,1.50
2019-05-05T17:09:46.605Z,1.20
2019-05-05T17:12:18.249Z,1.60
2019-05-05T17:14:54.419Z,2.33
2019-05-05T17:17:44.449Z,2.03
2019-05-05T17:20:19.641Z,1.37
2019-05-05T17:22:57.874Z,1.13
2019-05-05T17:25:28.792Z,1.00
2019-05-05T17:28:00.180Z,1.43
2019-05-05T17:30:31.566Z,1.30
2019-05-05T17:33:03.796Z,1.30
2019-05-05T17:35:36.295Z,1.13
2019-05-05T17:38:13.754Z,1.30
2019-05-05T17:40:46.377Z,1.40
2019-05-05T17:43:37.132Z,1.47
2019-05-05T17:46:24.223Z,1.60
2019-05-05T17:49:04.676Z,1.37
2019-05-05T17:51:40.377Z,1.13
2019-05-05T17:54:24.090Z,1.50
2019-05-05T17:56:55.131Z,1.17
2019-05-05T17:59:29.355Z,1.60
2019-05-05T18:02:00.338Z,2.03
2019-05-05T18:04:33.703Z,1.80
2019-05-05T18:07:06.043Z,1.93
2019-05-05T18:09:56.196Z,1.83
2019-05-05T18:12:33.753Z,1.43
2019-05-05T18:15:08.998Z,1.33
2019-05-05T18:17:40.172Z,1.17
2019-05-05T18:20:12.574Z,1.40
2019-05-05T18:22:44.502Z,1.17
2019-05-05T18:25:17.178Z,1.50
2019-05-05T18:27:48.293Z,1.13
2019-05-05T18:30:19.632Z,1.07
2019-05-05T18:32:53.405Z,1.83
2019-05-05T18:35:27.001Z,2.03
2019-05-05T18:37:59.572Z,1.60
2019-05-05T18:40:30.813Z,1.87
2019-05-05T18:43:05.933Z,1.80
2019-05-05T18:45:38.786Z,1.90
2019-05-05T18:48:11.697Z,1.80
2019-05-05T18:50:42.643Z,2.00
2019-05-05T18:53:15.158Z,1.90
2019-05-05T18:55:48.535Z,1.87
2019-05-05T18:58:27.185Z,1.80
2019-05-05T19:00:57.414Z,1.80
2019-05-05T19:03:45.278Z,1.73
2019-05-05T19:06:18.387Z,1.43
2019-05-05T19:08:54.545Z,2.00
2019-05-05T19:11:26.050Z,1.50
2019-05-05T19:13:58.035Z,1.57
2019-05-05T19:16:31.407Z,1.57
2019-05-05T19:19:04.478Z,1.40
2019-05-05T19:21:38.698Z,1.80
2019-05-05T19:24:09.502Z,1.93
2019-05-05T19:26:44.028Z,1.30
2019-05-05T19:29:15.879Z,1.60
2019-05-05T19:31:46.994Z,1.80
2019-05-05T19:34:18.318Z,1.47
2019-05-05T19:36:50.047Z,1.90
2019-05-05T19:39:20.716Z,2.03
2019-05-05T19:41:54.140Z,2.07
2019-05-05T19:44:26.115Z,2.50
2019-05-05T19:47:00.279Z,2.77
2019-05-05T19:49:31.286Z,2.43
2019-05-05T19:52:05.866Z,2.50
2019-05-05T19:54:37.010Z,2.20
2019-05-05T19:57:07.886Z,2.23
2019-05-05T19:59:41.381Z,2.83
2019-05-05T20:02:12.935Z,2.93
2019-05-05T20:04:44.702Z,3.13
2019-05-05T20:07:16.986Z,3.70
2019-05-05T20:09:50.243Z,6.43
2019-05-05T20:12:20.851Z,6.20
2019-05-05T20:14:51.701Z,4.83
2019-05-05T20:17:28.586Z,3.30
2019-05-05T20:19:59.953Z,3.40
2019-05-05T20:22:30.808Z,2.70
2019-05-05T20:25:07.316Z,3.03
2019-05-05T20:27:38.254Z,2.83
2019-05-05T20:30:11.087Z,2.47
2019-05-05T20:32:45.122Z,2.60
2019-05-05T20:35:21.250Z,2.70
2019-05-05T20:37:54.232Z,2.30
2019-05-05T20:40:26.904Z,3.07
2019-05-05T20:42:58.378Z,2.97
2019-05-05T20:45:31.096Z,3.53
2019-05-05T20:48:04.544Z,3.63
2019-05-05T20:50:35.743Z,2.80
2019-05-05T20:53:07.193Z,2.50
2019-05-05T20:55:41.105Z,3.20
2019-05-05T20:58:13.982Z,6.50
2019-05-05T21:00:46.119Z,3.50
2019-05-05T21:03:17.298Z,5.77
2019-05-05T21:05:48.147Z,4.40
2019-05-05T21:08:19.259Z,4.50
2019-05-05T21:10:50.090Z,4.40
2019-05-05T21:13:20.837Z,4.50
2019-05-05T21:15:53.756Z,4.87
2019-05-05T21:18:27.094Z,5.03
2019-05-05T21:21:01.869Z,6.60
2019-05-05T21:23:38.313Z,6.40
2019-05-05T21:26:13.853Z,7.13
2019-05-05T21:28:44.515Z,6.63
2019-05-05T21:31:15.489Z,5.67
2019-05-05T21:33:48.882Z,5.10
2019-05-05T21:36:19.894Z,4.30
2019-05-05T21:38:51.748Z,4.20
2019-05-05T21:41:24.468Z,5.47
2019-05-05T21:43:57.906Z,5.20
2019-05-05T21:46:28.722Z,5.10
2019-05-05T21:48:59.602Z,5.30
2019-05-05T21:51:39.876Z,4.60
2019-05-05T21:54:29.896Z,5.30
2019-05-05T21:57:04.369Z,5.40
2019-05-05T21:59:35.514Z,5.53
2019-05-05T22:02:06.491Z,4.87
2019-05-05T22:04:37.489Z,6.03
2019-05-05T22:07:08.446Z,5.20
2019-05-05T22:09:39.452Z,5.20
2019-05-05T22:12:10.270Z,5.47
2019-05-05T22:14:43.905Z,6.90
2019-05-05T22:17:14.899Z,7.90
2019-05-05T22:19:56.683Z,6.30
2019-05-05T22:22:29.004Z,6.27
2019-05-05T22:25:00.262Z,6.73
2019-05-05T22:27:31.640Z,6.27
2019-05-05T22:30:09.926Z,6.97
2019-05-05T22:32:35.419Z,6.33
2019-05-05T22:35:07.630Z,6.17
2019-05-05T22:37:38.708Z,6.20
2019-05-05T22:40:13.833Z,6.43
2019-05-05T22:42:46.986Z,7.30
2019-05-05T22:45:17.927Z,6.97
2019-05-05T22:47:48.892Z,7.00
2019-05-05T22:50:19.863Z,6.00
2019-05-05T22:52:50.826Z,7.97
2019-05-05T22:55:21.822Z,8.40
2019-05-05T22:57:54.390Z,6.47
2019-05-05T23:00:29.446Z,6.63
2019-05-05T23:03:07.938Z,7.10
2019-05-05T23:05:40.682Z,7.33
2019-05-05T23:08:13.606Z,7.27
2019-05-05T23:10:44.677Z,7.67
2019-05-05T23:13:16.193Z,7.00
2019-05-05T23:15:48.817Z,7.20
2019-05-05T23:18:25.715Z,6.50
2019-05-05T23:21:01.325Z,7.50
2019-05-05T23:23:46.539Z,7.17
2019-05-05T23:26:19.271Z,7.53
2019-05-05T23:28:50.278Z,7.73
2019-05-05T23:31:21.311Z,7.47
2019-05-05T23:33:54.882Z,6.70
2019-05-05T23:36:25.882Z,6.80
2019-05-05T23:38:58.180Z,6.67
2019-05-05T23:41:29.514Z,7.13
2019-05-05T23:44:00.642Z,6.20
2019-05-05T23:46:34.666Z,6.80
2019-05-05T23:49:04.988Z,6.53
2019-05-05T23:51:35.741Z,7.03
2019-05-05T23:54:06.776Z,6.50
2019-05-05T23:56:37.707Z,6.30
2019-05-05T23:59:08.515Z,7.93
